PWSweather.com
Personal Weather Stations
Station Observations
TEOWRC
Pt, CampotizzoroIT 51028

PtCampotizzoroIT 51028

Lat: 44.039426, Lon: 10.870519999999942

Elevation: 0

Station Type: Davis Vantage Vue

http://www.meteocampotizzoro.it/

Latest ConditionsUpdated 11:10:05 PM GMT+01:01 Friday, Oct 18, 2019
Currently Today's Max Today's Min Today's Average
Temperature 50.4°F10.2°C 57.8°F14.3°C 40.1°F4.5°C 48.8°F9.3°C
Dew Point 49.6°F9.8°C 54.2°F12.3°C 39.3°F4.1°C 47.4°F8.6°C
Winds Calm Calm 2.3 mph -3.7 kmh - - 0.1 mph 0.2 kmh
Wind Gusts 1.2 mph1.9 kmh 4.6 mph7.4 kmh - -
Humidity 97% 99% 83% 95%
Pressure 30.07 in1018.3 mb 30.14 in1020.7 mb 30.07 in1018.3 mb -
Hour Temp Dew Point Humidity Winds Wind Gusts Pressure Precip Precip Rate Daily Precip Total
11:10 PM 50.4°F10.2°C 49.6°F9.8°C 97% Calm Calm 1.2 mph1.9 kmh 30.07 in1018.3 mb - 0.00 in0.0 mm 0.03 in0.8 mm
11:05 PM 50.4°F10.2°C 49.6°F9.8°C 97% Calm Calm -- 30.07 in1018.3 mb - 0.00 in0.0 mm 0.03 in0.8 mm
11:00 PM 50.3°F10.2°C 49.5°F9.7°C 97% Calm Calm -- 30.07 in1018.3 mb - 0.00 in0.0 mm 0.03 in0.8 mm
10:55 PM 50.3°F10.2°C 49.5°F9.7°C 97% Calm Calm -- 30.07 in1018.3 mb - 0.00 in0.0 mm 0.02 in0.5 mm
10:50 PM 50.2°F10.1°C 49.4°F9.7°C 97% Calm Calm -- 30.07 in1018.3 mb - 0.00 in0.0 mm 0.02 in0.5 mm
10:45 PM 50.2°F10.1°C 49.4°F9.7°C 97% Calm Calm -- 30.07 in1018.3 mb - 0.00 in0.0 mm 0.02 in0.5 mm
10:40 PM 50.2°F10.1°C 49.4°F9.7°C 97% Calm Calm -- 30.07 in1018.3 mb - 0.00 in0.0 mm 0.02 in0.5 mm
10:35 PM 50.1°F10.1°C 49.3°F9.6°C 97% Calm Calm 2.3 mph3.7 kmh 30.07 in1018.3 mb - 0.00 in0.0 mm 0.02 in0.5 mm
10:30 PM 50.0°F10.0°C 49.2°F9.6°C 97% Calm Calm -- 30.08 in1018.6 mb - 0.00 in0.0 mm 0.02 in0.5 mm
10:25 PM 50.0°F10.0°C 49.2°F9.6°C 97% Calm Calm 1.2 mph1.9 kmh 30.08 in1018.6 mb - 0.00 in0.0 mm 0.02 in0.5 mm
10:20 PM 50.0°F10.0°C 49.2°F9.6°C 97% Calm Calm 1.2 mph1.9 kmh 30.08 in1018.6 mb - 0.00 in0.0 mm 0.02 in0.5 mm
10:15 PM 50.0°F10.0°C 49.2°F9.6°C 97% Calm Calm -- 30.08 in1018.6 mb - 0.00 in0.0 mm 0.02 in0.5 mm
10:10 PM 49.9°F9.9°C 49.1°F9.5°C 97% Calm Calm -- 30.08 in1018.6 mb - 0.00 in0.0 mm 0.02 in0.5 mm
10:05 PM 49.9°F9.9°C 49.1°F9.5°C 97% Calm Calm 1.2 mph1.9 kmh 30.08 in1018.6 mb - 0.00 in0.0 mm 0.02 in0.5 mm
10:00 PM 49.9°F9.9°C 49.1°F9.5°C 97% Calm Calm -- 30.08 in1018.6 mb - 0.00 in0.0 mm 0.02 in0.5 mm
09:55 PM 49.9°F9.9°C 48.8°F9.3°C 96% Calm Calm -- 30.08 in1018.6 mb - 0.00 in0.0 mm 0.02 in0.5 mm
09:50 PM 49.9°F9.9°C 48.8°F9.3°C 96% Calm Calm -- 30.08 in1018.6 mb - 0.00 in0.0 mm 0.02 in0.5 mm
09:45 PM 49.9°F9.9°C 48.8°F9.3°C 96% Calm Calm -- 30.08 in1018.6 mb - 0.00 in0.0 mm 0.02 in0.5 mm
09:40 PM 49.9°F9.9°C 48.8°F9.3°C 96% Calm Calm -- 30.08 in1018.6 mb - 0.00 in0.0 mm 0.02 in0.5 mm
09:35 PM 49.8°F9.9°C 48.7°F9.3°C 96% Calm Calm -- 30.08 in1018.6 mb - 0.01 in0.3 mm 0.02 in0.5 mm
09:30 PM 49.8°F9.9°C 48.7°F9.3°C 96% Calm Calm -- 30.08 in1018.6 mb - 0.00 in0.0 mm 0.02 in0.5 mm
09:25 PM 49.8°F9.9°C 48.7°F9.3°C 96% Calm Calm -- 30.08 in1018.6 mb - 0.00 in0.0 mm 0.02 in0.5 mm
09:20 PM 49.8°F9.9°C 48.7°F9.3°C 96% Calm Calm -- 30.08 in1018.6 mb - 0.00 in0.0 mm 0.02 in0.5 mm
09:15 PM 49.8°F9.9°C 48.7°F9.3°C 96% Calm Calm -- 30.08 in1018.6 mb - 0.00 in0.0 mm 0.02 in0.5 mm
09:10 PM 49.7°F9.8°C 48.6°F9.2°C 96% Calm Calm -- 30.09 in1019.0 mb - 0.01 in0.3 mm 0.02 in0.5 mm
09:05 PM 49.7°F9.8°C 48.6°F9.2°C 96% Calm Calm -- 30.09 in1019.0 mb - 0.00 in0.0 mm 0.01 in0.3 mm
09:00 PM 49.7°F9.8°C 48.6°F9.2°C 96% Calm Calm -- 30.09 in1019.0 mb - 0.00 in0.0 mm 0.01 in0.3 mm
08:55 PM 49.7°F9.8°C 48.6°F9.2°C 96% Calm Calm -- 30.08 in1018.6 mb - 0.00 in0.0 mm 0.01 in0.3 mm
08:50 PM 49.7°F9.8°C 48.6°F9.2°C 96% Calm Calm -- 30.09 in1019.0 mb - 0.00 in0.0 mm 0.01 in0.3 mm
08:45 PM 49.6°F9.8°C 48.5°F9.2°C 96% Calm Calm -- 30.09 in1019.0 mb - 0.00 in0.0 mm 0.01 in0.3 mm
08:40 PM 49.6°F9.8°C 48.5°F9.2°C 96% Calm Calm -- 30.09 in1019.0 mb - 0.00 in0.0 mm 0.01 in0.3 mm
08:35 PM 49.5°F9.7°C 48.4°F9.1°C 96% Calm Calm -- 30.09 in1019.0 mb - 0.00 in0.0 mm 0.01 in0.3 mm
08:30 PM 49.5°F9.7°C 48.4°F9.1°C 96% Calm Calm -- 30.08 in1018.6 mb - 0.00 in0.0 mm 0.01 in0.3 mm
08:25 PM 49.5°F9.7°C 48.4°F9.1°C 96% Calm Calm -- 30.08 in1018.6 mb - 0.00 in0.0 mm 0.01 in0.3 mm
08:20 PM 49.4°F9.7°C 48.3°F9.1°C 96% Calm Calm -- 30.09 in1019.0 mb - 0.00 in0.0 mm 0.01 in0.3 mm
08:15 PM 49.4°F9.7°C 48.3°F9.1°C 96% Calm Calm -- 30.09 in1019.0 mb - 0.00 in0.0 mm 0.01 in0.3 mm
08:10 PM 49.3°F9.6°C 48.2°F9.0°C 96% Calm Calm -- 30.09 in1019.0 mb - 0.00 in0.0 mm 0.01 in0.3 mm
08:05 PM 49.3°F9.6°C 48.2°F9.0°C 96% Calm Calm -- 30.08 in1018.6 mb - 0.00 in0.0 mm 0.01 in0.3 mm
08:00 PM 49.3°F9.6°C 48.2°F9.0°C 96% Calm Calm -- 30.09 in1019.0 mb - 0.00 in0.0 mm 0.01 in0.3 mm
07:55 PM 49.3°F9.6°C 48.2°F9.0°C 96% Calm Calm -- 30.08 in1018.6 mb - 0.00 in0.0 mm 0.01 in0.3 mm
07:50 PM 49.2°F9.6°C 48.1°F8.9°C 96% Calm Calm -- 30.08 in1018.6 mb - 0.00 in0.0 mm 0.01 in0.3 mm
07:45 PM 49.2°F9.6°C 48.1°F8.9°C 96% Calm Calm -- 30.08 in1018.6 mb - 0.00 in0.0 mm 0.01 in0.3 mm
07:40 PM 49.2°F9.6°C 48.1°F8.9°C 96% Calm Calm -- 30.09 in1019.0 mb - 0.00 in0.0 mm 0.01 in0.3 mm
07:35 PM 49.2°F9.6°C 48.1°F8.9°C 96% Calm Calm -- 30.08 in1018.6 mb - 0.00 in0.0 mm 0.01 in0.3 mm
07:30 PM 49.2°F9.6°C 48.1°F8.9°C 96% Calm Calm -- 30.08 in1018.6 mb - 0.00 in0.0 mm 0.01 in0.3 mm
07:25 PM 49.2°F9.6°C 48.1°F8.9°C 96% Calm Calm -- 30.08 in1018.6 mb - 0.00 in0.0 mm 0.01 in0.3 mm
07:20 PM 49.1°F9.5°C 48.0°F8.9°C 96% Calm Calm -- 30.08 in1018.6 mb - 0.00 in0.0 mm 0.01 in0.3 mm
07:15 PM 49.0°F9.4°C 47.9°F8.8°C 96% Calm Calm -- 30.08 in1018.6 mb - 0.00 in0.0 mm 0.01 in0.3 mm
07:10 PM 49.0°F9.4°C 47.9°F8.8°C 96% Calm Calm -- 30.08 in1018.6 mb - 0.00 in0.0 mm 0.01 in0.3 mm
07:05 PM 49.0°F9.4°C 47.9°F8.8°C 96% Calm Calm -- 30.08 in1018.6 mb - 0.00 in0.0 mm 0.01 in0.3 mm
07:00 PM 49.1°F9.5°C 48.0°F8.9°C 96% Calm Calm -- 30.08 in1018.6 mb - 0.00 in0.0 mm 0.01 in0.3 mm
06:55 PM 49.1°F9.5°C 48.0°F8.9°C 96% Calm Calm -- 30.08 in1018.6 mb - 0.00 in0.0 mm 0.01 in0.3 mm
06:50 PM 49.1°F9.5°C 47.7°F8.7°C 95% Calm Calm -- 30.08 in1018.6 mb - 0.00 in0.0 mm 0.01 in0.3 mm
06:45 PM 49.3°F9.6°C 48.0°F8.9°C 95% Calm Calm -- 30.08 in1018.6 mb - 0.00 in0.0 mm 0.01 in0.3 mm
06:40 PM 49.5°F9.7°C 48.1°F8.9°C 95% Calm Calm -- 30.08 in1018.6 mb - 0.00 in0.0 mm 0.01 in0.3 mm
06:35 PM 49.7°F9.8°C 48.3°F9.1°C 95% Calm Calm -- 30.07 in1018.3 mb - 0.00 in0.0 mm 0.01 in0.3 mm
06:30 PM 49.8°F9.9°C 48.4°F9.1°C 95% Calm Calm -- 30.07 in1018.3 mb - 0.00 in0.0 mm 0.01 in0.3 mm
06:25 PM 50.0°F10.0°C 48.6°F9.2°C 95% Calm Calm -- 30.07 in1018.3 mb - 0.00 in0.0 mm 0.01 in0.3 mm
06:20 PM 50.2°F10.1°C 48.8°F9.3°C 95% Calm Calm -- 30.07 in1018.3 mb - 0.00 in0.0 mm 0.01 in0.3 mm
06:15 PM 50.3°F10.2°C 48.9°F9.4°C 95% Calm Calm -- 30.07 in1018.3 mb - 0.00 in0.0 mm 0.01 in0.3 mm
06:10 PM 50.5°F10.3°C 49.1°F9.5°C 95% Calm Calm -- 30.07 in1018.3 mb - 0.00 in0.0 mm 0.01 in0.3 mm
06:05 PM 50.7°F10.4°C 49.3°F9.6°C 95% Calm Calm -- 30.07 in1018.3 mb - 0.00 in0.0 mm 0.01 in0.3 mm
06:00 PM 50.9°F10.5°C 49.3°F9.6°C 94% Calm Calm -- 30.07 in1018.3 mb - 0.00 in0.0 mm 0.01 in0.3 mm
05:55 PM 51.2°F10.7°C 49.5°F9.7°C 94% Calm Calm -- 30.07 in1018.3 mb - 0.00 in0.0 mm 0.01 in0.3 mm
05:50 PM 51.4°F10.8°C 49.7°F9.8°C 94% Calm Calm -- 30.07 in1018.3 mb - 0.00 in0.0 mm 0.01 in0.3 mm
05:45 PM 51.6°F10.9°C 49.9°F9.9°C 94% Calm Calm -- 30.07 in1018.3 mb - 0.00 in0.0 mm 0.01 in0.3 mm
05:40 PM 51.8°F11.0°C 50.1°F10.1°C 94% Calm Calm -- 30.07 in1018.3 mb - 0.00 in0.0 mm 0.01 in0.3 mm
05:35 PM 52.1°F11.2°C 50.4°F10.2°C 94% Calm Calm -- 30.07 in1018.3 mb - 0.00 in0.0 mm 0.01 in0.3 mm
05:30 PM 52.4°F11.3°C 50.4°F10.2°C 93% Calm Calm -- 30.07 in1018.3 mb - 0.00 in0.0 mm 0.01 in0.3 mm
05:25 PM 52.7°F11.5°C 50.7°F10.4°C 93% Calm Calm -- 30.07 in1018.3 mb - 0.00 in0.0 mm 0.01 in0.3 mm
05:20 PM 52.9°F11.6°C 51.0°F10.6°C 93% Calm Calm -- 30.07 in1018.3 mb - 0.00 in0.0 mm 0.01 in0.3 mm
05:15 PM 53.2°F11.8°C 51.2°F10.7°C 93% Calm Calm -- 30.07 in1018.3 mb - 0.00 in0.0 mm 0.01 in0.3 mm
05:10 PM 53.5°F11.9°C 51.2°F10.7°C 92% Calm Calm -- 30.07 in1018.3 mb - 0.00 in0.0 mm 0.01 in0.3 mm
05:05 PM 53.7°F12.1°C 51.4°F10.8°C 92% Calm Calm -- 30.07 in1018.3 mb - 0.00 in0.0 mm 0.01 in0.3 mm
05:00 PM 54.0°F12.2°C 51.7°F10.9°C 92% Calm Calm -- 30.07 in1018.3 mb - 0.00 in0.0 mm 0.01 in0.3 mm
04:55 PM 54.2°F12.3°C 51.6°F10.9°C 91% Calm Calm -- 30.07 in1018.3 mb - 0.00 in0.0 mm 0.01 in0.3 mm
04:50 PM 54.4°F12.4°C 51.5°F10.8°C 90% Calm Calm -- 30.07 in1018.3 mb - 0.00 in0.0 mm 0.01 in0.3 mm
04:45 PM 54.7°F12.6°C 51.8°F11.0°C 90% Calm Calm -- 30.07 in1018.3 mb - 0.00 in0.0 mm 0.01 in0.3 mm
04:40 PM 55.0°F12.8°C 51.8°F11.0°C 89% Calm Calm -- 30.07 in1018.3 mb - 0.00 in0.0 mm 0.01 in0.3 mm
04:35 PM 55.4°F13.0°C 51.9°F11.1°C 88% Calm Calm -- 30.07 in1018.3 mb - 0.00 in0.0 mm 0.01 in0.3 mm
04:30 PM 55.9°F13.3°C 52.1°F11.2°C 87% Calm Calm -- 30.07 in1018.3 mb - 0.00 in0.0 mm 0.01 in0.3 mm
04:25 PM 56.2°F13.4°C 52.1°F11.2°C 86% Calm Calm -- 30.07 in1018.3 mb - 0.00 in0.0 mm 0.01 in0.3 mm
04:20 PM 56.5°F13.6°C 52.0°F11.1°C 85% Calm Calm -- 30.07 in1018.3 mb - 0.00 in0.0 mm 0.01 in0.3 mm
04:15 PM 56.7°F13.7°C 52.2°F11.2°C 85% Calm Calm -- 30.07 in1018.3 mb - 0.00 in0.0 mm 0.01 in0.3 mm
04:10 PM 57.0°F13.9°C 52.2°F11.2°C 84% Calm Calm 1.2 mph1.9 kmh 30.07 in1018.3 mb - 0.00 in0.0 mm 0.01 in0.3 mm
04:05 PM 57.3°F14.1°C 52.5°F11.4°C 84% Calm Calm -- 30.07 in1018.3 mb - 0.00 in0.0 mm 0.01 in0.3 mm
04:00 PM 57.5°F14.2°C 52.7°F11.5°C 84% Calm Calm 1.2 mph1.9 kmh 30.07 in1018.3 mb - 0.00 in0.0 mm 0.01 in0.3 mm
03:55 PM 57.4°F14.1°C 52.6°F11.4°C 84% Calm Calm 2.3 mph3.7 kmh 30.07 in1018.3 mb - 0.00 in0.0 mm 0.01 in0.3 mm
03:50 PM 57.3°F14.1°C 52.5°F11.4°C 84% Calm Calm -- 30.07 in1018.3 mb - 0.00 in0.0 mm 0.01 in0.3 mm
03:45 PM 57.2°F14.0°C 52.4°F11.3°C 84% 1.2 mph E1.9 kmh E 1.2 mph1.9 kmh 30.08 in1018.6 mb - 0.00 in0.0 mm 0.01 in0.3 mm
03:40 PM 57.2°F14.0°C 52.4°F11.3°C 84% Calm Calm -- 30.07 in1018.3 mb - 0.00 in0.0 mm 0.01 in0.3 mm
03:35 PM 57.3°F14.1°C 52.2°F11.2°C 83% 1.2 mph NE1.9 kmh NE -- 30.08 in1018.6 mb - 0.00 in0.0 mm 0.01 in0.3 mm
03:30 PM 57.5°F14.2°C 52.7°F11.5°C 84% Calm Calm -- 30.07 in1018.3 mb - 0.00 in0.0 mm 0.01 in0.3 mm
03:25 PM 57.6°F14.2°C 52.8°F11.6°C 84% Calm Calm -- 30.07 in1018.3 mb - 0.00 in0.0 mm 0.01 in0.3 mm
03:20 PM 57.8°F14.3°C 53.3°F11.8°C 85% Calm Calm 1.2 mph1.9 kmh 30.07 in1018.3 mb - 0.00 in0.0 mm 0.01 in0.3 mm
03:15 PM 57.5°F14.2°C 53.0°F11.7°C 85% Calm Calm -- 30.08 in1018.6 mb - 0.00 in0.0 mm 0.01 in0.3 mm
03:10 PM 57.3°F14.1°C 52.8°F11.6°C 85% Calm Calm -- 30.08 in1018.6 mb - 0.00 in0.0 mm 0.01 in0.3 mm
03:05 PM 57.2°F14.0°C 53.0°F11.7°C 86% Calm Calm -- 30.08 in1018.6 mb - 0.00 in0.0 mm 0.01 in0.3 mm
03:00 PM 57.1°F13.9°C 52.6°F11.4°C 85% 1.2 mph ESE1.9 kmh ESE 1.2 mph1.9 kmh 30.08 in1018.6 mb - 0.00 in0.0 mm 0.01 in0.3 mm
02:55 PM 57.1°F13.9°C 53.0°F11.7°C 86% Calm Calm -- 30.08 in1018.6 mb - 0.00 in0.0 mm 0.01 in0.3 mm
02:50 PM 57.1°F13.9°C 53.0°F11.7°C 86% 1.2 mph NE1.9 kmh NE 3.5 mph5.6 kmh 30.08 in1018.6 mb - 0.00 in0.0 mm 0.01 in0.3 mm
02:45 PM 57.1°F13.9°C 53.5°F11.9°C 88% Calm Calm 1.2 mph1.9 kmh 30.08 in1018.6 mb - 0.00 in0.0 mm 0.01 in0.3 mm
02:40 PM 56.7°F13.7°C 53.5°F11.9°C 89% Calm Calm 2.3 mph3.7 kmh 30.08 in1018.6 mb - 0.00 in0.0 mm 0.01 in0.3 mm
02:35 PM 56.3°F13.5°C 53.1°F11.7°C 89% Calm Calm -- 30.08 in1018.6 mb - 0.00 in0.0 mm 0.01 in0.3 mm
02:30 PM 56.2°F13.4°C 53.3°F11.8°C 90% Calm Calm -- 30.08 in1018.6 mb - 0.00 in0.0 mm 0.01 in0.3 mm
02:25 PM 56.2°F13.4°C 53.3°F11.8°C 90% Calm Calm -- 30.08 in1018.6 mb - 0.00 in0.0 mm 0.01 in0.3 mm
02:20 PM 56.2°F13.4°C 53.6°F12.0°C 91% Calm Calm -- 30.08 in1018.6 mb - 0.00 in0.0 mm 0.01 in0.3 mm
02:15 PM 56.2°F13.4°C 53.3°F11.8°C 90% 1.2 mph NE1.9 kmh NE 2.3 mph3.7 kmh 30.08 in1018.6 mb - 0.00 in0.0 mm 0.01 in0.3 mm
02:10 PM 56.1°F13.4°C 53.2°F11.8°C 90% Calm Calm 1.2 mph1.9 kmh 30.08 in1018.6 mb - 0.00 in0.0 mm 0.01 in0.3 mm
02:05 PM 56.1°F13.4°C 53.2°F11.8°C 90% Calm Calm -- 30.08 in1018.6 mb - 0.00 in0.0 mm 0.01 in0.3 mm
02:00 PM 56.2°F13.4°C 53.3°F11.8°C 90% 1.2 mph NE1.9 kmh NE 2.3 mph3.7 kmh 30.08 in1018.6 mb - 0.00 in0.0 mm 0.01 in0.3 mm
01:55 PM 56.4°F13.6°C 53.5°F11.9°C 90% 1.2 mph NE1.9 kmh NE 3.5 mph5.6 kmh 30.08 in1018.6 mb - 0.00 in0.0 mm 0.01 in0.3 mm
01:50 PM 56.5°F13.6°C 53.6°F12.0°C 90% Calm Calm 3.5 mph5.6 kmh 30.08 in1018.6 mb - 0.00 in0.0 mm 0.01 in0.3 mm
01:45 PM 56.6°F13.7°C 53.7°F12.1°C 90% Calm Calm 3.5 mph5.6 kmh 30.08 in1018.6 mb - 0.00 in0.0 mm 0.01 in0.3 mm
01:40 PM 56.5°F13.6°C 53.9°F12.2°C 91% 1.2 mph ENE1.9 kmh ENE 4.6 mph7.4 kmh 30.08 in1018.6 mb - 0.00 in0.0 mm 0.01 in0.3 mm
01:35 PM 56.4°F13.6°C 53.8°F12.1°C 91% 2.3 mph NE3.7 kmh NE 4.6 mph7.4 kmh 30.08 in1018.6 mb - 0.00 in0.0 mm 0.01 in0.3 mm
01:30 PM 56.2°F13.4°C 53.9°F12.2°C 92% Calm Calm 3.5 mph5.6 kmh 30.08 in1018.6 mb - 0.00 in0.0 mm 0.01 in0.3 mm
01:25 PM 56.0°F13.3°C 54.0°F12.2°C 93% Calm Calm -- 30.08 in1018.6 mb - 0.00 in0.0 mm 0.01 in0.3 mm
01:20 PM 55.7°F13.2°C 53.7°F12.1°C 93% Calm Calm -- 30.09 in1019.0 mb - 0.00 in0.0 mm 0.01 in0.3 mm
01:15 PM 55.5°F13.1°C 53.2°F11.8°C 92% Calm Calm -- 30.09 in1019.0 mb - 0.00 in0.0 mm 0.01 in0.3 mm
01:10 PM 55.5°F13.1°C 53.2°F11.8°C 92% Calm Calm 1.2 mph1.9 kmh 30.09 in1019.0 mb - 0.00 in0.0 mm 0.01 in0.3 mm
01:05 PM 55.5°F13.1°C 52.9°F11.6°C 91% 1.2 mph E1.9 kmh E 2.3 mph3.7 kmh 30.09 in1019.0 mb - 0.00 in0.0 mm 0.01 in0.3 mm
01:00 PM 55.6°F13.1°C 53.3°F11.8°C 92% 1.2 mph NE1.9 kmh NE 3.5 mph5.6 kmh 30.09 in1019.0 mb - 0.00 in0.0 mm 0.01 in0.3 mm
12:55 PM 55.7°F13.2°C 53.1°F11.7°C 91% 1.2 mph NNW1.9 kmh NNW 2.3 mph3.7 kmh 30.10 in1019.3 mb - 0.00 in0.0 mm 0.01 in0.3 mm
12:50 PM 55.9°F13.3°C 53.0°F11.7°C 90% 1.2 mph NW1.9 kmh NW 2.3 mph3.7 kmh 30.10 in1019.3 mb - 0.00 in0.0 mm 0.01 in0.3 mm
12:45 PM 56.0°F13.3°C 53.1°F11.7°C 90% Calm Calm 1.2 mph1.9 kmh 30.10 in1019.3 mb - 0.00 in0.0 mm 0.01 in0.3 mm
12:40 PM 56.2°F13.4°C 53.3°F11.8°C 90% Calm Calm 3.5 mph5.6 kmh 30.10 in1019.3 mb - 0.00 in0.0 mm 0.01 in0.3 mm
12:35 PM 56.5°F13.6°C 54.2°F12.3°C 92% Calm Calm -- 30.10 in1019.3 mb - 0.00 in0.0 mm 0.01 in0.3 mm
12:30 PM 56.1°F13.4°C 53.8°F12.1°C 92% 1.2 mph NE1.9 kmh NE 2.3 mph3.7 kmh 30.10 in1019.3 mb - 0.00 in0.0 mm 0.01 in0.3 mm
12:25 PM 55.8°F13.2°C 53.8°F12.1°C 93% Calm Calm 1.2 mph1.9 kmh 30.11 in1019.6 mb - 0.00 in0.0 mm 0.01 in0.3 mm
12:20 PM 55.4°F13.0°C 53.4°F11.9°C 93% 1.2 mph NNE1.9 kmh NNE 1.2 mph1.9 kmh 30.11 in1019.6 mb - 0.00 in0.0 mm 0.01 in0.3 mm
12:15 PM 55.4°F13.0°C 53.1°F11.7°C 92% 1.2 mph NE1.9 kmh NE 1.2 mph1.9 kmh 30.11 in1019.6 mb - 0.00 in0.0 mm 0.01 in0.3 mm
12:10 PM 55.6°F13.1°C 53.4°F11.9°C 92% 1.2 mph N1.9 kmh N 2.3 mph3.7 kmh 30.11 in1019.6 mb - 0.00 in0.0 mm 0.01 in0.3 mm
12:05 PM 55.5°F13.1°C 53.5°F11.9°C 93% 1.2 mph NE1.9 kmh NE 1.2 mph1.9 kmh 30.11 in1019.6 mb - 0.00 in0.0 mm 0.01 in0.3 mm
12:00 PM 55.4°F13.0°C 53.4°F11.9°C 93% 1.2 mph NE1.9 kmh NE 2.3 mph3.7 kmh 30.11 in1019.6 mb - 0.00 in0.0 mm 0.01 in0.3 mm
11:55 AM 55.3°F12.9°C 53.3°F11.8°C 93% Calm Calm -- 30.11 in1019.6 mb - 0.00 in0.0 mm 0.01 in0.3 mm
11:50 AM 55.3°F12.9°C 53.1°F11.7°C 92% Calm Calm 1.2 mph1.9 kmh 30.11 in1019.6 mb - 0.00 in0.0 mm 0.01 in0.3 mm
11:45 AM 55.7°F13.2°C 53.4°F11.9°C 92% 1.2 mph ENE1.9 kmh ENE 3.5 mph5.6 kmh 30.11 in1019.6 mb - 0.00 in0.0 mm 0.01 in0.3 mm
11:40 AM 55.8°F13.2°C 53.5°F11.9°C 92% Calm Calm 1.2 mph1.9 kmh 30.11 in1019.6 mb - 0.00 in0.0 mm 0.01 in0.3 mm
11:35 AM 55.2°F12.9°C 53.2°F11.8°C 93% Calm Calm -- 30.11 in1019.6 mb - 0.00 in0.0 mm 0.01 in0.3 mm
11:30 AM 54.9°F12.7°C 52.6°F11.4°C 92% Calm Calm -- 30.12 in1020.0 mb - 0.00 in0.0 mm 0.01 in0.3 mm
11:25 AM 54.5°F12.5°C 53.1°F11.7°C 95% Calm Calm 1.2 mph1.9 kmh 30.12 in1020.0 mb - 0.00 in0.0 mm 0.01 in0.3 mm
11:20 AM 53.9°F12.2°C 52.7°F11.5°C 96% Calm Calm -- 30.12 in1020.0 mb - 0.00 in0.0 mm 0.01 in0.3 mm
11:15 AM 53.3°F11.8°C 52.2°F11.2°C 96% Calm Calm -- 30.12 in1020.0 mb - 0.00 in0.0 mm 0.01 in0.3 mm
11:10 AM 52.6°F11.4°C 51.5°F10.8°C 96% Calm Calm -- 30.12 in1020.0 mb - 0.00 in0.0 mm 0.01 in0.3 mm
11:05 AM 52.1°F11.2°C 51.0°F10.6°C 96% Calm Calm -- 30.12 in1020.0 mb - 0.00 in0.0 mm 0.01 in0.3 mm
11:00 AM 51.9°F11.1°C 50.8°F10.4°C 96% Calm Calm -- 30.12 in1020.0 mb - 0.00 in0.0 mm 0.01 in0.3 mm
10:55 AM 51.9°F11.1°C 50.5°F10.3°C 95% Calm Calm -- 30.12 in1020.0 mb - 0.00 in0.0 mm 0.01 in0.3 mm
10:50 AM 52.2°F11.2°C 50.8°F10.4°C 95% 1.2 mph NE1.9 kmh NE -- 30.12 in1020.0 mb - 0.00 in0.0 mm 0.01 in0.3 mm
10:45 AM 52.3°F11.3°C 50.9°F10.5°C 95% Calm Calm 1.2 mph1.9 kmh 30.12 in1020.0 mb - 0.00 in0.0 mm 0.01 in0.3 mm
10:40 AM 52.4°F11.3°C 51.0°F10.6°C 95% Calm Calm 2.3 mph3.7 kmh 30.12 in1020.0 mb - 0.00 in0.0 mm 0.01 in0.3 mm
10:35 AM 52.3°F11.3°C 50.9°F10.5°C 95% Calm Calm -- 30.12 in1020.0 mb - 0.00 in0.0 mm 0.01 in0.3 mm
10:30 AM 52.4°F11.3°C 51.0°F10.6°C 95% Calm Calm 2.3 mph3.7 kmh 30.12 in1020.0 mb - 0.00 in0.0 mm 0.01 in0.3 mm
10:25 AM 52.4°F11.3°C 51.0°F10.6°C 95% Calm Calm 1.2 mph1.9 kmh 30.12 in1020.0 mb - 0.00 in0.0 mm 0.01 in0.3 mm
10:20 AM 52.3°F11.3°C 50.9°F10.5°C 95% Calm Calm -- 30.12 in1020.0 mb - 0.00 in0.0 mm 0.01 in0.3 mm
10:15 AM 52.1°F11.2°C 50.7°F10.4°C 95% Calm Calm 1.2 mph1.9 kmh 30.12 in1020.0 mb - 0.00 in0.0 mm 0.01 in0.3 mm
10:10 AM 52.3°F11.3°C 50.9°F10.5°C 95% Calm Calm 3.5 mph5.6 kmh 30.12 in1020.0 mb - 0.00 in0.0 mm 0.01 in0.3 mm
10:05 AM 52.2°F11.2°C 50.8°F10.4°C 95% Calm Calm -- 30.12 in1020.0 mb - 0.00 in0.0 mm 0.01 in0.3 mm
10:00 AM 52.2°F11.2°C 51.1°F10.6°C 96% 1.2 mph NNE1.9 kmh NNE 2.3 mph3.7 kmh 30.12 in1020.0 mb - 0.00 in0.0 mm 0.01 in0.3 mm
09:55 AM 51.9°F11.1°C 50.5°F10.3°C 95% Calm Calm 2.3 mph3.7 kmh 30.12 in1020.0 mb - 0.00 in0.0 mm 0.01 in0.3 mm
09:50 AM 51.6°F10.9°C 50.5°F10.3°C 96% Calm Calm -- 30.12 in1020.0 mb - 0.00 in0.0 mm 0.01 in0.3 mm
09:45 AM 51.5°F10.8°C 50.1°F10.1°C 95% Calm Calm 2.3 mph3.7 kmh 30.12 in1020.0 mb - 0.00 in0.0 mm 0.01 in0.3 mm
09:40 AM 51.9°F11.1°C 50.5°F10.3°C 95% 1.2 mph NW1.9 kmh NW 2.3 mph3.7 kmh 30.12 in1020.0 mb - 0.00 in0.0 mm 0.01 in0.3 mm
09:35 AM 52.0°F11.1°C 50.9°F10.5°C 96% Calm Calm -- 30.12 in1020.0 mb - 0.00 in0.0 mm 0.01 in0.3 mm
09:30 AM 52.1°F11.2°C 51.2°F10.7°C 97% Calm Calm 1.2 mph1.9 kmh 30.12 in1020.0 mb - 0.00 in0.0 mm 0.01 in0.3 mm
09:25 AM 51.4°F10.8°C 50.6°F10.3°C 97% Calm Calm -- 30.12 in1020.0 mb - 0.00 in0.0 mm 0.01 in0.3 mm
09:20 AM 51.5°F10.8°C 51.0°F10.6°C 98% Calm Calm 1.2 mph1.9 kmh 30.12 in1020.0 mb - 0.00 in0.0 mm 0.01 in0.3 mm
09:15 AM 51.2°F10.7°C 50.7°F10.4°C 98% Calm Calm -- 30.12 in1020.0 mb - 0.00 in0.0 mm 0.01 in0.3 mm
09:10 AM 51.1°F10.6°C 50.6°F10.3°C 98% Calm Calm -- 30.12 in1020.0 mb - 0.00 in0.0 mm 0.01 in0.3 mm
09:05 AM 50.6°F10.3°C 50.1°F10.1°C 98% Calm Calm -- 30.11 in1019.6 mb - 0.00 in0.0 mm 0.01 in0.3 mm
09:00 AM 50.3°F10.2°C 49.8°F9.9°C 98% Calm Calm -- 30.11 in1019.6 mb - 0.00 in0.0 mm 0.01 in0.3 mm
08:55 AM 50.2°F10.1°C 49.9°F9.9°C 99% Calm Calm -- 30.11 in1019.6 mb - 0.00 in0.0 mm 0.01 in0.3 mm
08:50 AM 50.0°F10.0°C 49.7°F9.8°C 99% Calm Calm -- 30.11 in1019.6 mb - 0.00 in0.0 mm 0.01 in0.3 mm
08:45 AM 49.6°F9.8°C 49.3°F9.6°C 99% Calm Calm -- 30.11 in1019.6 mb - 0.00 in0.0 mm 0.01 in0.3 mm
08:40 AM 48.7°F9.3°C 48.4°F9.1°C 99% Calm Calm -- 30.11 in1019.6 mb - 0.00 in0.0 mm 0.01 in0.3 mm
08:35 AM 48.2°F9.0°C 47.9°F8.8°C 99% Calm Calm -- 30.11 in1019.6 mb - 0.00 in0.0 mm 0.01 in0.3 mm
08:30 AM 47.9°F8.8°C 47.6°F8.7°C 99% Calm Calm -- 30.11 in1019.6 mb - 0.00 in0.0 mm 0.01 in0.3 mm
08:25 AM 47.1°F8.4°C 46.5°F8.1°C 98% Calm Calm -- 30.11 in1019.6 mb - 0.00 in0.0 mm 0.01 in0.3 mm
08:20 AM 46.3°F7.9°C 45.8°F7.7°C 98% Calm Calm -- 30.11 in1019.6 mb - 0.00 in0.0 mm 0.01 in0.3 mm
08:15 AM 45.7°F7.6°C 45.2°F7.3°C 98% Calm Calm -- 30.12 in1020.0 mb - 0.00 in0.0 mm 0.01 in0.3 mm
08:10 AM 45.3°F7.4°C 44.8°F7.1°C 98% Calm Calm -- 30.12 in1020.0 mb - 0.00 in0.0 mm 0.01 in0.3 mm
08:05 AM 44.8°F7.1°C 44.2°F6.8°C 98% Calm Calm -- 30.12 in1020.0 mb - 0.00 in0.0 mm 0.01 in0.3 mm
08:00 AM 44.6°F7.0°C 44.1°F6.7°C 98% Calm Calm -- 30.12 in1020.0 mb - 0.00 in0.0 mm 0.01 in0.3 mm
07:55 AM 44.2°F6.8°C 43.7°F6.5°C 98% Calm Calm -- 30.12 in1020.0 mb - 0.00 in0.0 mm 0.01 in0.3 mm
07:50 AM 43.4°F6.3°C 42.9°F6.1°C 98% Calm Calm -- 30.12 in1020.0 mb - 0.00 in0.0 mm 0.01 in0.3 mm
07:45 AM 42.8°F6.0°C 42.3°F5.7°C 98% Calm Calm -- 30.12 in1020.0 mb - 0.00 in0.0 mm 0.01 in0.3 mm
07:40 AM 42.3°F5.7°C 41.8°F5.4°C 98% Calm Calm -- 30.12 in1020.0 mb - 0.00 in0.0 mm 0.01 in0.3 mm
07:35 AM 41.9°F5.5°C 41.4°F5.2°C 98% Calm Calm -- 30.12 in1020.0 mb - 0.00 in0.0 mm 0.01 in0.3 mm
07:30 AM 41.8°F5.4°C 41.3°F5.2°C 98% Calm Calm -- 30.11 in1019.6 mb - 0.00 in0.0 mm 0.01 in0.3 mm
07:25 AM 41.7°F5.4°C 41.2°F5.1°C 98% Calm Calm -- 30.11 in1019.6 mb - 0.00 in0.0 mm 0.01 in0.3 mm
07:20 AM 41.7°F5.4°C 41.2°F5.1°C 98% Calm Calm -- 30.11 in1019.6 mb - 0.00 in0.0 mm 0.01 in0.3 mm
07:15 AM 41.6°F5.3°C 41.1°F5.1°C 98% Calm Calm -- 30.11 in1019.6 mb - 0.00 in0.0 mm 0.01 in0.3 mm
07:10 AM 41.7°F5.4°C 41.2°F5.1°C 98% Calm Calm -- 30.11 in1019.6 mb - 0.00 in0.0 mm 0.01 in0.3 mm
07:05 AM 42.0°F5.6°C 41.5°F5.3°C 98% Calm Calm -- 30.11 in1019.6 mb - 0.00 in0.0 mm 0.01 in0.3 mm
07:00 AM 42.5°F5.8°C 42.0°F5.6°C 98% Calm Calm -- 30.11 in1019.6 mb - 0.00 in0.0 mm 0.01 in0.3 mm
06:55 AM 42.2°F5.7°C 41.6°F5.3°C 98% Calm Calm -- 30.11 in1019.6 mb - 0.00 in0.0 mm 0.01 in0.3 mm
06:50 AM 41.4°F5.2°C 40.9°F4.9°C 98% Calm Calm -- 30.11 in1019.6 mb - 0.00 in0.0 mm 0.01 in0.3 mm
06:45 AM 41.0°F5.0°C 40.5°F4.7°C 98% Calm Calm -- 30.10 in1019.3 mb - 0.00 in0.0 mm 0.01 in0.3 mm
06:40 AM 40.7°F4.8°C 40.2°F4.6°C 98% Calm Calm -- 30.10 in1019.3 mb - 0.00 in0.0 mm 0.01 in0.3 mm
06:35 AM 40.6°F4.8°C 40.1°F4.5°C 98% Calm Calm -- 30.10 in1019.3 mb - 0.00 in0.0 mm 0.01 in0.3 mm
06:30 AM 40.6°F4.8°C 40.1°F4.5°C 98% Calm Calm -- 30.10 in1019.3 mb - 0.00 in0.0 mm 0.01 in0.3 mm
06:25 AM 40.5°F4.7°C 40.0°F4.4°C 98% Calm Calm -- 30.10 in1019.3 mb - 0.00 in0.0 mm 0.01 in0.3 mm
06:20 AM 40.4°F4.7°C 39.9°F4.4°C 98% Calm Calm -- 30.10 in1019.3 mb - 0.00 in0.0 mm 0.01 in0.3 mm
06:15 AM 40.2°F4.6°C 39.4°F4.1°C 97% Calm Calm -- 30.10 in1019.3 mb - 0.00 in0.0 mm 0.01 in0.3 mm
06:10 AM 40.1°F4.5°C 39.3°F4.1°C 97% Calm Calm -- 30.10 in1019.3 mb - 0.00 in0.0 mm 0.01 in0.3 mm
06:05 AM 40.1°F4.5°C 39.4°F4.1°C 97% Calm Calm -- 30.10 in1019.3 mb - 0.00 in0.0 mm 0.01 in0.3 mm
06:00 AM 40.3°F4.6°C 39.5°F4.2°C 97% Calm Calm -- 30.10 in1019.3 mb - 0.00 in0.0 mm 0.01 in0.3 mm
05:55 AM 40.5°F4.7°C 39.7°F4.3°C 97% Calm Calm -- 30.11 in1019.6 mb - 0.00 in0.0 mm 0.01 in0.3 mm
05:50 AM 40.8°F4.9°C 40.3°F4.6°C 98% Calm Calm -- 30.11 in1019.6 mb - 0.00 in0.0 mm 0.01 in0.3 mm
05:45 AM 41.0°F5.0°C 40.5°F4.7°C 98% Calm Calm -- 30.11 in1019.6 mb - 0.00 in0.0 mm 0.01 in0.3 mm
05:40 AM 40.8°F4.9°C 40.3°F4.6°C 98% Calm Calm -- 30.11 in1019.6 mb - 0.00 in0.0 mm 0.01 in0.3 mm
05:35 AM 40.5°F4.7°C 39.7°F4.3°C 97% Calm Calm -- 30.11 in1019.6 mb - 0.00 in0.0 mm 0.01 in0.3 mm
05:30 AM 40.5°F4.7°C 39.7°F4.3°C 97% Calm Calm -- 30.11 in1019.6 mb - 0.00 in0.0 mm 0.01 in0.3 mm
05:25 AM 40.5°F4.7°C 39.7°F4.3°C 97% Calm Calm -- 30.11 in1019.6 mb - 0.00 in0.0 mm 0.01 in0.3 mm
05:20 AM 40.3°F4.6°C 39.5°F4.2°C 97% Calm Calm -- 30.11 in1019.6 mb - 0.00 in0.0 mm 0.01 in0.3 mm
05:15 AM 40.4°F4.7°C 39.6°F4.2°C 97% Calm Calm -- 30.11 in1019.6 mb - 0.00 in0.0 mm 0.01 in0.3 mm
05:10 AM 40.5°F4.7°C 39.7°F4.3°C 97% Calm Calm -- 30.11 in1019.6 mb - 0.00 in0.0 mm 0.01 in0.3 mm
05:05 AM 40.5°F4.7°C 39.7°F4.3°C 97% Calm Calm -- 30.11 in1019.6 mb - 0.00 in0.0 mm 0.01 in0.3 mm
05:00 AM 40.6°F4.8°C 39.8°F4.3°C 97% Calm Calm -- 30.11 in1019.6 mb - 0.00 in0.0 mm 0.01 in0.3 mm
04:55 AM 40.8°F4.9°C 40.0°F4.4°C 97% Calm Calm -- 30.11 in1019.6 mb - 0.00 in0.0 mm 0.01 in0.3 mm
04:50 AM 40.9°F4.9°C 40.1°F4.5°C 97% Calm Calm -- 30.11 in1019.6 mb - 0.00 in0.0 mm 0.01 in0.3 mm
04:45 AM 40.8°F4.9°C 40.0°F4.4°C 97% Calm Calm -- 30.11 in1019.6 mb - 0.00 in0.0 mm 0.01 in0.3 mm
04:40 AM 40.8°F4.9°C 40.0°F4.4°C 97% Calm Calm -- 30.11 in1019.6 mb - 0.00 in0.0 mm 0.01 in0.3 mm
04:35 AM 40.8°F4.9°C 40.0°F4.4°C 97% Calm Calm -- 30.11 in1019.6 mb - 0.01 in0.3 mm 0.01 in0.3 mm
04:30 AM 40.8°F4.9°C 40.0°F4.4°C 97% Calm Calm -- 30.11 in1019.6 mb - 0.00 in0.0 mm 0.00 in0.0 mm
04:25 AM 40.7°F4.8°C 39.9°F4.4°C 97% Calm Calm -- 30.11 in1019.6 mb - 0.00 in0.0 mm 0.00 in0.0 mm
04:20 AM 40.7°F4.8°C 39.9°F4.4°C 97% Calm Calm -- 30.11 in1019.6 mb - 0.00 in0.0 mm 0.00 in0.0 mm
04:15 AM 40.6°F4.8°C 39.8°F4.3°C 97% Calm Calm -- 30.11 in1019.6 mb - 0.00 in0.0 mm 0.00 in0.0 mm
04:10 AM 40.5°F4.7°C 39.7°F4.3°C 97% Calm Calm -- 30.11 in1019.6 mb - 0.00 in0.0 mm 0.00 in0.0 mm
04:05 AM 40.6°F4.8°C 39.8°F4.3°C 97% Calm Calm -- 30.11 in1019.6 mb - 0.00 in0.0 mm 0.00 in0.0 mm
04:00 AM 40.8°F4.9°C 40.0°F4.4°C 97% Calm Calm -- 30.11 in1019.6 mb - 0.00 in0.0 mm 0.00 in0.0 mm
03:55 AM 40.9°F4.9°C 40.1°F4.5°C 97% Calm Calm -- 30.11 in1019.6 mb - 0.00 in0.0 mm 0.00 in0.0 mm
03:50 AM 41.0°F5.0°C 40.2°F4.6°C 97% Calm Calm -- 30.11 in1019.6 mb - 0.00 in0.0 mm 0.00 in0.0 mm
03:45 AM 41.1°F5.1°C 40.3°F4.6°C 97% Calm Calm -- 30.11 in1019.6 mb - 0.00 in0.0 mm 0.00 in0.0 mm
03:40 AM 41.3°F5.2°C 40.5°F4.7°C 97% Calm Calm -- 30.12 in1020.0 mb - 0.00 in0.0 mm 0.00 in0.0 mm
03:35 AM 41.3°F5.2°C 40.5°F4.7°C 97% Calm Calm -- 30.12 in1020.0 mb - 0.00 in0.0 mm 0.00 in0.0 mm
03:30 AM 41.3°F5.2°C 40.5°F4.7°C 97% Calm Calm -- 30.12 in1020.0 mb - 0.00 in0.0 mm 0.00 in0.0 mm
03:25 AM 41.2°F5.1°C 40.4°F4.7°C 97% Calm Calm -- 30.12 in1020.0 mb - 0.00 in0.0 mm 0.00 in0.0 mm
03:20 AM 41.1°F5.1°C 40.3°F4.6°C 97% Calm Calm -- 30.12 in1020.0 mb - 0.00 in0.0 mm 0.00 in0.0 mm
03:15 AM 41.1°F5.1°C 40.3°F4.6°C 97% Calm Calm -- 30.12 in1020.0 mb - 0.00 in0.0 mm 0.00 in0.0 mm
03:10 AM 41.1°F5.1°C 40.3°F4.6°C 97% Calm Calm -- 30.12 in1020.0 mb - 0.00 in0.0 mm 0.00 in0.0 mm
03:05 AM 41.1°F5.1°C 40.3°F4.6°C 97% Calm Calm -- 30.12 in1020.0 mb - 0.00 in0.0 mm 0.00 in0.0 mm
03:00 AM 41.2°F5.1°C 40.4°F4.7°C 97% Calm Calm -- 30.12 in1020.0 mb - 0.00 in0.0 mm 0.00 in0.0 mm
02:55 AM 41.3°F5.2°C 40.5°F4.7°C 97% Calm Calm -- 30.12 in1020.0 mb - 0.00 in0.0 mm 0.00 in0.0 mm
02:50 AM 41.5°F5.3°C 40.7°F4.8°C 97% Calm Calm -- 30.12 in1020.0 mb - 0.00 in0.0 mm 0.00 in0.0 mm
02:45 AM 41.6°F5.3°C 40.8°F4.9°C 97% Calm Calm -- 30.12 in1020.0 mb - 0.00 in0.0 mm 0.00 in0.0 mm
02:40 AM 41.7°F5.4°C 40.9°F4.9°C 97% Calm Calm -- 30.12 in1020.0 mb - 0.00 in0.0 mm 0.00 in0.0 mm
02:35 AM 41.7°F5.4°C 40.9°F4.9°C 97% Calm Calm -- 30.12 in1020.0 mb - 0.00 in0.0 mm 0.00 in0.0 mm
02:30 AM 41.9°F5.5°C 41.1°F5.1°C 97% Calm Calm -- 30.12 in1020.0 mb - 0.00 in0.0 mm 0.00 in0.0 mm
02:25 AM 41.9°F5.5°C 41.1°F5.1°C 97% Calm Calm -- 30.12 in1020.0 mb - 0.00 in0.0 mm 0.00 in0.0 mm
02:20 AM 42.1°F5.6°C 41.3°F5.2°C 97% Calm Calm -- 30.12 in1020.0 mb - 0.00 in0.0 mm 0.00 in0.0 mm
02:15 AM 42.3°F5.7°C 41.5°F5.3°C 97% Calm Calm -- 30.13 in1020.3 mb - 0.00 in0.0 mm 0.00 in0.0 mm
02:10 AM 42.3°F5.7°C 41.5°F5.3°C 97% Calm Calm -- 30.13 in1020.3 mb - 0.00 in0.0 mm 0.00 in0.0 mm
02:05 AM 42.5°F5.8°C 41.7°F5.4°C 97% Calm Calm -- 30.13 in1020.3 mb - 0.00 in0.0 mm 0.00 in0.0 mm
02:00 AM 42.5°F5.8°C 41.7°F5.4°C 97% Calm Calm -- 30.13 in1020.3 mb - 0.00 in0.0 mm 0.00 in0.0 mm
01:55 AM 42.3°F5.7°C 41.5°F5.3°C 97% Calm Calm -- 30.13 in1020.3 mb - 0.00 in0.0 mm 0.00 in0.0 mm
01:50 AM 42.3°F5.7°C 41.5°F5.3°C 97% Calm Calm -- 30.13 in1020.3 mb - 0.00 in0.0 mm 0.00 in0.0 mm
01:45 AM 42.4°F5.8°C 41.6°F5.3°C 97% Calm Calm -- 30.13 in1020.3 mb - 0.00 in0.0 mm 0.00 in0.0 mm
01:40 AM 42.6°F5.9°C 41.8°F5.4°C 97% Calm Calm -- 30.13 in1020.3 mb - 0.00 in0.0 mm 0.00 in0.0 mm
01:35 AM 42.8°F6.0°C 42.0°F5.6°C 97% Calm Calm -- 30.13 in1020.3 mb - 0.00 in0.0 mm 0.00 in0.0 mm
01:30 AM 43.0°F6.1°C 42.2°F5.7°C 97% Calm Calm -- 30.13 in1020.3 mb - 0.00 in0.0 mm 0.00 in0.0 mm
01:25 AM 43.0°F6.1°C 42.2°F5.7°C 97% Calm Calm -- 30.13 in1020.3 mb - 0.00 in0.0 mm 0.00 in0.0 mm
01:20 AM 43.0°F6.1°C 42.2°F5.7°C 97% Calm Calm -- 30.14 in1020.7 mb - 0.00 in0.0 mm 0.00 in0.0 mm
01:15 AM 43.2°F6.2°C 42.1°F5.6°C 96% Calm Calm -- 30.14 in1020.7 mb - 0.00 in0.0 mm 0.00 in0.0 mm
01:10 AM 43.4°F6.3°C 42.4°F5.8°C 96% Calm Calm -- 30.14 in1020.7 mb - 0.00 in0.0 mm 0.00 in0.0 mm
01:05 AM 43.7°F6.5°C 42.9°F6.1°C 97% Calm Calm -- 30.14 in1020.7 mb - 0.00 in0.0 mm 0.00 in0.0 mm
01:00 AM 43.8°F6.6°C 42.7°F5.9°C 96% Calm Calm -- 30.14 in1020.7 mb - 0.00 in0.0 mm 0.00 in0.0 mm
12:55 AM 44.0°F6.7°C 43.2°F6.2°C 97% Calm Calm -- 30.14 in1020.7 mb - 0.00 in0.0 mm 0.00 in0.0 mm
12:50 AM 44.2°F6.8°C 43.4°F6.3°C 97% Calm Calm -- 30.14 in1020.7 mb - 0.00 in0.0 mm 0.00 in0.0 mm
12:45 AM 44.3°F6.8°C 43.5°F6.4°C 97% Calm Calm -- 30.14 in1020.7 mb - 0.00 in0.0 mm 0.00 in0.0 mm
12:40 AM 44.3°F6.8°C 43.2°F6.2°C 96% Calm Calm -- 30.14 in1020.7 mb - 0.00 in0.0 mm 0.00 in0.0 mm
12:35 AM 44.5°F6.9°C 43.4°F6.3°C 96% Calm Calm -- 30.14 in1020.7 mb - 0.00 in0.0 mm 0.00 in0.0 mm
12:30 AM 44.7°F7.1°C 43.7°F6.5°C 96% Calm Calm -- 30.14 in1020.7 mb - 0.00 in0.0 mm 0.00 in0.0 mm
12:25 AM 45.0°F7.2°C 43.9°F6.6°C 96% Calm Calm -- 30.14 in1020.7 mb - 0.00 in0.0 mm 0.00 in0.0 mm
12:20 AM 45.1°F7.3°C 44.0°F6.7°C 96% Calm Calm -- 30.14 in1020.7 mb - 0.00 in0.0 mm 0.00 in0.0 mm
12:15 AM 45.3°F7.4°C 44.3°F6.8°C 96% Calm Calm -- 30.14 in1020.7 mb - 0.00 in0.0 mm 0.00 in0.0 mm
12:10 AM 45.5°F7.5°C 44.4°F6.9°C 96% Calm Calm -- 30.14 in1020.7 mb - 0.00 in0.0 mm 0.00 in0.0 mm
12:05 AM 45.6°F7.6°C 44.8°F7.1°C 97% Calm Calm -- 30.14 in1020.7 mb - 0.00 in0.0 mm 0.00 in0.0 mm
12:00 AM 45.6°F7.6°C 44.8°F7.1°C 97% Calm Calm -- 30.14 in1020.7 mb - 0.00 in0.0 mm 0.00 in0.0 mm